createdAt,value
2017-05-07T00:02:15.855Z,99787
2017-05-07T00:04:48.645Z,99794
2017-05-07T00:07:46.097Z,99788
2017-05-07T00:10:15.135Z,99788
2017-05-07T00:12:48.099Z,99785
2017-05-07T00:15:17.171Z,99775
2017-05-07T00:17:47.304Z,99777
2017-05-07T00:20:33.388Z,99781
2017-05-07T00:23:02.374Z,99777
2017-05-07T00:25:31.448Z,99776
2017-05-07T00:28:00.491Z,99760
2017-05-07T00:30:29.479Z,99766
2017-05-07T00:32:58.536Z,99772
2017-05-07T00:35:27.513Z,99771
2017-05-07T00:37:56.531Z,99758
2017-05-07T00:40:25.609Z,99766
2017-05-07T00:42:54.619Z,99772
2017-05-07T00:45:23.611Z,99774
2017-05-07T00:47:52.628Z,99764
2017-05-07T00:50:21.605Z,99769
2017-05-07T00:52:50.629Z,99772
2017-05-07T00:55:19.683Z,99773
2017-05-07T00:57:48.666Z,99772
2017-05-07T01:00:17.768Z,99776
2017-05-07T01:02:46.888Z,99774
2017-05-07T01:05:45.938Z,99776
2017-05-07T01:08:14.946Z,99759
2017-05-07T01:10:47.830Z,99761
2017-05-07T01:13:16.832Z,99759
2017-05-07T01:15:46.636Z,99759
2017-05-07T01:18:15.735Z,99754
2017-05-07T01:20:44.713Z,99754
2017-05-07T01:23:13.827Z,99750
2017-05-07T01:28:49.500Z,99751
2017-05-07T01:31:18.579Z,99748
2017-05-07T01:33:47.647Z,99755
2017-05-07T01:36:17.438Z,99756
2017-05-07T01:41:48.868Z,99752
2017-05-07T01:44:17.970Z,99757
2017-05-07T01:46:47.016Z,99756
2017-05-07T01:49:16.142Z,99752
2017-05-07T01:51:45.248Z,99754
2017-05-07T01:54:14.230Z,99751
2017-05-07T01:56:49.776Z,99756
2017-05-07T01:59:18.861Z,99751
2017-05-07T02:04:26.492Z,99756
2017-05-07T02:06:55.477Z,99746
2017-05-07T02:09:24.466Z,99737
2017-05-07T02:11:53.577Z,99740
2017-05-07T02:14:22.605Z,99733
2017-05-07T02:16:52.330Z,99729
2017-05-07T02:19:22.167Z,99731
2017-05-07T02:21:51.271Z,99733
2017-05-07T02:24:46.912Z,99737
2017-05-07T02:27:15.969Z,99743
2017-05-07T02:29:48.886Z,99737
2017-05-07T02:32:17.902Z,99742
2017-05-07T02:37:25.562Z,99740
2017-05-07T02:39:54.597Z,99747
2017-05-07T02:42:23.674Z,99742
2017-05-07T02:44:52.754Z,99743
2017-05-07T02:47:21.838Z,99746
2017-05-07T02:49:50.863Z,99743
2017-05-07T02:52:46.180Z,99750
2017-05-07T02:55:15.229Z,99751
2017-05-07T02:57:47.942Z,99750
2017-05-07T03:00:17.018Z,99751
2017-05-07T03:02:45.992Z,99755
2017-05-07T03:05:15.009Z,99755
2017-05-07T03:07:44.480Z,99760
2017-05-07T03:10:13.525Z,99756
2017-05-07T03:12:42.591Z,99759
2017-05-07T03:15:11.713Z,99761
2017-05-07T03:17:40.733Z,99755
2017-05-07T03:20:10.486Z,99757
2017-05-07T03:22:39.590Z,99771
2017-05-07T03:25:08.679Z,99768
2017-05-07T03:27:37.662Z,99760
2017-05-07T03:30:06.762Z,99768
2017-05-07T03:32:35.861Z,99765
2017-05-07T03:35:04.850Z,99769
2017-05-07T03:37:33.829Z,99767
2017-05-07T03:43:03.923Z,99757
2017-05-07T03:45:47.220Z,99764
2017-05-07T03:48:46.311Z,99765
2017-05-07T03:51:15.392Z,99759
2017-05-07T03:53:44.389Z,99753
2017-05-07T03:56:13.491Z,99753
2017-05-07T03:58:42.587Z,99762
2017-05-07T04:01:11.681Z,99761
2017-05-07T04:03:40.774Z,99758
2017-05-07T04:06:09.780Z,99753
2017-05-07T04:08:46.652Z,99749
2017-05-07T04:11:15.652Z,99756
2017-05-07T04:13:44.644Z,99755
2017-05-07T04:16:14.657Z,99764
2017-05-07T04:18:43.740Z,99760
2017-05-07T04:21:12.824Z,99754
2017-05-07T04:23:41.822Z,99750
2017-05-07T04:26:10.918Z,99748
2017-05-07T04:28:39.916Z,99749
2017-05-07T04:31:09.004Z,99748
2017-05-07T04:33:38.107Z,99756
2017-05-07T04:36:07.122Z,99748
2017-05-07T04:38:36.186Z,99749
2017-05-07T04:41:05.170Z,99757
2017-05-07T04:43:47.477Z,99751
2017-05-07T04:46:16.458Z,99762
2017-05-07T04:48:45.441Z,99769
2017-05-07T04:51:14.458Z,99770
2017-05-07T04:53:49.403Z,99774
2017-05-07T04:56:46.162Z,99770
2017-05-07T05:02:46.743Z,99772
2017-05-07T05:05:31.145Z,99769
2017-05-07T05:08:00.235Z,99767
2017-05-07T05:10:29.226Z,99774
2017-05-07T05:12:58.226Z,99777
2017-05-07T05:15:27.250Z,99778
2017-05-07T05:17:56.253Z,99782
2017-05-07T05:24:01.674Z,99786
2017-05-07T05:26:48.206Z,99782
2017-05-07T05:29:35.602Z,99784
2017-05-07T05:32:04.723Z,99781
2017-05-07T05:34:33.711Z,99780
2017-05-07T05:40:04.656Z,99787
2017-05-07T05:42:33.734Z,99781
2017-05-07T05:45:02.765Z,99791
2017-05-07T05:47:31.840Z,99787
2017-05-07T05:50:00.926Z,99788
2017-05-07T05:52:30.015Z,99785
2017-05-07T05:54:59.113Z,99785
2017-05-07T05:57:28.161Z,99793
2017-05-07T06:02:59.082Z,99800
2017-05-07T06:05:28.160Z,99799
2017-05-07T06:07:57.142Z,99799
2017-05-07T06:10:26.246Z,99810
2017-05-07T06:12:55.236Z,99799
2017-05-07T06:15:24.626Z,99808
2017-05-07T06:23:56.676Z,99813
2017-05-07T06:26:25.744Z,99811
2017-05-07T06:28:54.831Z,99823
2017-05-07T06:31:23.925Z,99818
2017-05-07T06:33:52.942Z,99824
2017-05-07T06:36:21.934Z,99819
2017-05-07T06:38:50.961Z,99819
2017-05-07T06:44:47.518Z,99821
2017-05-07T06:47:47.281Z,99813
2017-05-07T06:50:46.200Z,99820
2017-05-07T06:56:45.846Z,99822
2017-05-07T07:02:46.578Z,99827
2017-05-07T07:05:15.650Z,99825
2017-05-07T07:07:44.642Z,99823
2017-05-07T07:10:13.657Z,99829
2017-05-07T07:12:42.732Z,99826
2017-05-07T07:15:11.822Z,99828
2017-05-07T07:17:46.865Z,99828
2017-05-07T07:20:16.141Z,99832
2017-05-07T07:22:45.206Z,99835
2017-05-07T07:25:14.930Z,99839
2017-05-07T07:27:43.977Z,99840
2017-05-07T07:30:13.250Z,99847
2017-05-07T07:32:42.354Z,99840
2017-05-07T07:35:11.439Z,99847
2017-05-07T07:37:40.457Z,99847
2017-05-07T07:40:09.429Z,99846
2017-05-07T07:42:39.031Z,99856
2017-05-07T07:48:09.685Z,99860
2017-05-07T07:50:47.037Z,99859
2017-05-07T07:53:16.803Z,99858
2017-05-07T07:55:45.900Z,99853
2017-05-07T07:58:14.952Z,99858
2017-05-07T08:00:43.957Z,99853
2017-05-07T08:03:12.949Z,99853
2017-05-07T08:05:41.971Z,99857
2017-05-07T08:08:10.951Z,99859
2017-05-07T08:10:47.507Z,99855
2017-05-07T08:13:16.603Z,99855
2017-05-07T08:15:45.625Z,99852
2017-05-07T08:18:14.691Z,99853
2017-05-07T08:20:43.686Z,99857
2017-05-07T08:23:12.702Z,99866
2017-05-07T08:25:42.539Z,99865
2017-05-07T08:31:13.945Z,99860
2017-05-07T08:33:42.950Z,99861
2017-05-07T08:36:12.052Z,99866
2017-05-07T08:38:41.129Z,99870
2017-05-07T08:41:10.139Z,99865
2017-05-07T08:43:39.121Z,99869
2017-05-07T08:46:08.186Z,99872
2017-05-07T08:48:37.205Z,99869
2017-05-07T08:51:06.231Z,99866
2017-05-07T08:53:47.568Z,99867
2017-05-07T08:56:46.720Z,99872
2017-05-07T08:59:15.776Z,99876
2017-05-07T09:01:44.872Z,99875
2017-05-07T09:04:13.861Z,99879
2017-05-07T09:06:42.949Z,99882
2017-05-07T09:09:11.954Z,99876
2017-05-07T09:11:56.721Z,99881
2017-05-07T09:17:55.468Z,99878
2017-05-07T09:20:24.450Z,99880
2017-05-07T09:22:53.508Z,99880
2017-05-07T09:25:22.604Z,99886
2017-05-07T09:27:51.702Z,99881
2017-05-07T09:30:20.742Z,99876
2017-05-07T09:32:50.496Z,99873
2017-05-07T09:35:45.887Z,99884
2017-05-07T09:41:15.858Z,99883
2017-05-07T09:43:44.841Z,99880
2017-05-07T09:46:13.934Z,99877
2017-05-07T09:48:49.506Z,99882
2017-05-07T09:51:18.521Z,99889
2017-05-07T09:53:48.250Z,99884
2017-05-07T09:56:46.189Z,99882
2017-05-07T09:59:15.160Z,99878
2017-05-07T10:01:44.240Z,99884
2017-05-07T10:04:13.335Z,99881
2017-05-07T10:06:48.466Z,99875
2017-05-07T10:09:17.571Z,99873
2017-05-07T10:11:46.557Z,99872
2017-05-07T10:14:15.647Z,99871
2017-05-07T10:16:44.645Z,99878
2017-05-07T10:19:13.727Z,99875
2017-05-07T10:21:42.726Z,99878
2017-05-07T10:27:13.699Z,99880
2017-05-07T10:29:43.641Z,99879
2017-05-07T10:32:12.668Z,99876
2017-05-07T10:34:41.680Z,99884
2017-05-07T10:37:10.665Z,99881
2017-05-07T10:39:47.254Z,99876
2017-05-07T10:42:46.889Z,99875
2017-05-07T10:45:45.789Z,99876
2017-05-07T10:54:45.891Z,99876
2017-05-07T10:57:20.570Z,99877
2017-05-07T10:59:49.638Z,99878
2017-05-07T11:02:45.684Z,99880
2017-05-07T11:08:46.753Z,99872
2017-05-07T11:11:46.143Z,99874
2017-05-07T11:17:47.057Z,99860
2017-05-07T11:20:42.854Z,99865
2017-05-07T11:28:48.214Z,99864
2017-05-07T11:31:17.284Z,99854
2017-05-07T11:33:47.518Z,99866
2017-05-07T11:36:46.848Z,99858
2017-05-07T11:39:46.387Z,99866
2017-05-07T11:45:46.288Z,99860
2017-05-07T11:51:16.073Z,99852
2017-05-07T11:53:45.054Z,99853
2017-05-07T11:59:45.779Z,99851
2017-05-07T12:02:45.750Z,99844
2017-05-07T12:08:46.464Z,99844
2017-05-07T12:11:46.252Z,99838
2017-05-07T12:17:46.792Z,99847
2017-05-07T12:20:43.358Z,99853
2017-05-07T12:29:03.427Z,99853
2017-05-07T12:31:46.755Z,99854
2017-05-07T12:34:46.530Z,99855
2017-05-07T12:37:46.498Z,99854
2017-05-07T12:46:17.287Z,99851
2017-05-07T12:48:47.714Z,99852
2017-05-07T12:51:47.219Z,99855
2017-05-07T12:54:46.114Z,99853
2017-05-07T13:00:16.745Z,99844
2017-05-07T13:02:48.694Z,99841
2017-05-07T13:05:46.187Z,99849
2017-05-07T13:11:45.841Z,99843
2017-05-07T13:14:45.792Z,99844
2017-05-07T13:23:45.925Z,99851
2017-05-07T13:26:41.698Z,99850
2017-05-07T13:29:10.733Z,99849
2017-05-07T13:31:47.396Z,99855
2017-05-07T13:34:46.919Z,99857
2017-05-07T13:37:47.034Z,99854
2017-05-07T13:40:42.826Z,99858
2017-05-07T13:43:11.893Z,99855
2017-05-07T13:45:47.450Z,99856
2017-05-07T13:48:46.105Z,99862
2017-05-07T13:54:45.977Z,99869
2017-05-07T14:00:15.926Z,99876
2017-05-07T14:02:48.784Z,99868
2017-05-07T14:05:17.865Z,99861
2017-05-07T14:07:48.202Z,99861
2017-05-07T14:10:17.173Z,99866
2017-05-07T14:12:46.308Z,99868
2017-05-07T14:15:15.388Z,99864
2017-05-07T14:17:44.414Z,99868
2017-05-07T14:20:13.467Z,99862
2017-05-07T14:22:49.208Z,99866
2017-05-07T14:25:45.930Z,99867
2017-05-07T14:28:15.689Z,99862
2017-05-07T14:30:47.853Z,99867
2017-05-07T14:33:16.941Z,99865
2017-05-07T14:35:49.103Z,99863
2017-05-07T14:38:18.188Z,99871
2017-05-07T14:40:47.201Z,99859
2017-05-07T14:43:16.285Z,99866
2017-05-07T14:45:48.641Z,99859
2017-05-07T14:48:46.121Z,99859
2017-05-07T14:51:15.717Z,99860
2017-05-07T14:53:44.740Z,99859
2017-05-07T14:56:13.770Z,99862
2017-05-07T14:58:43.509Z,99863
2017-05-07T15:07:15.520Z,99868
2017-05-07T15:09:44.600Z,99866
2017-05-07T15:18:17.358Z,99859
2017-05-07T15:20:46.426Z,99864
2017-05-07T15:23:15.497Z,99866
2017-05-07T15:25:44.518Z,99863
2017-05-07T15:30:48.643Z,99859
2017-05-07T15:33:17.727Z,99864
2017-05-07T15:35:46.704Z,99864
2017-05-07T15:38:15.819Z,99855
2017-05-07T15:46:30.871Z,99856
2017-05-07T15:52:00.966Z,99848
2017-05-07T15:54:29.964Z,99851
2017-05-07T16:03:02.381Z,99847
2017-05-07T16:05:48.794Z,99846
2017-05-07T16:08:17.813Z,99842
2017-05-07T16:10:47.861Z,99846
2017-05-07T16:13:16.866Z,99837
2017-05-07T16:16:04.911Z,99844
2017-05-07T16:25:19.701Z,99842
2017-05-07T16:28:03.652Z,99844
2017-05-07T16:30:47.919Z,99840
2017-05-07T16:33:46.770Z,99842
2017-05-07T16:39:16.761Z,99848
2017-05-07T16:41:49.362Z,99841
2017-05-07T16:44:45.886Z,99841
2017-05-07T16:47:14.960Z,99845
2017-05-07T16:49:47.766Z,99851
2017-05-07T16:52:16.841Z,99847
2017-05-07T16:54:49.078Z,99841
2017-05-07T16:57:18.084Z,99841
2017-05-07T16:59:47.416Z,99851
2017-05-07T17:02:16.410Z,99849
2017-05-07T17:04:49.246Z,99849
2017-05-07T17:07:46.570Z,99848
2017-05-07T17:10:46.329Z,99856
2017-05-07T17:13:15.433Z,99860
2017-05-07T17:15:48.095Z,99852
2017-05-07T17:18:47.807Z,99851
2017-05-07T17:21:16.802Z,99854
2017-05-07T17:23:45.894Z,99851
2017-05-07T17:26:14.988Z,99863
2017-05-07T17:28:43.995Z,99859
2017-05-07T17:31:13.585Z,99862
2017-05-07T17:33:48.618Z,99867
2017-05-07T17:36:17.713Z,99867
2017-05-07T17:38:48.142Z,99865
2017-05-07T17:41:17.253Z,99874
2017-05-07T17:43:46.343Z,99868
2017-05-07T17:46:15.327Z,99873
2017-05-07T17:48:48.008Z,99878
2017-05-07T17:51:17.095Z,99876
2017-05-07T17:53:46.126Z,99874
2017-05-07T17:56:15.194Z,99870
2017-05-07T17:58:47.608Z,99874
2017-05-07T18:01:16.668Z,99881
2017-05-07T18:03:49.135Z,99873
2017-05-07T18:06:46.909Z,99872
2017-05-07T18:09:15.991Z,99878
2017-05-07T18:11:48.408Z,99882
2017-05-07T18:14:47.999Z,99874
2017-05-07T18:17:46.632Z,99874
2017-05-07T18:26:47.805Z,99872
2017-05-07T18:29:47.804Z,99880
2017-05-07T18:32:46.565Z,99876
2017-05-07T18:38:46.043Z,99878
2017-05-07T18:44:47.626Z,99883
2017-05-07T18:47:16.676Z,99890
2017-05-07T18:49:45.752Z,99881
2017-05-07T18:52:14.842Z,99885
2017-05-07T18:54:43.938Z,99887
2017-05-07T18:57:13.031Z,99893
2017-05-07T18:59:48.503Z,99902
2017-05-07T19:02:17.493Z,99894
2017-05-07T19:04:48.150Z,99891
2017-05-07T19:07:47.418Z,99890
2017-05-07T19:10:46.241Z,99900
2017-05-07T19:13:15.975Z,99899
2017-05-07T19:15:48.019Z,99894
2017-05-07T19:18:17.800Z,99901
2017-05-07T19:20:46.869Z,99908
2017-05-07T19:23:15.953Z,99906
2017-05-07T19:25:44.955Z,99908
2017-05-07T19:28:13.950Z,99910
2017-05-07T19:30:49.191Z,99906
2017-05-07T19:33:18.282Z,99915
2017-05-07T19:35:48.336Z,99912
2017-05-07T19:38:17.485Z,99922
2017-05-07T19:40:48.822Z,99916
2017-05-07T19:43:18.094Z,99916
2017-05-07T19:45:47.850Z,99919
2017-05-07T19:48:17.154Z,99912
2017-05-07T19:50:46.249Z,99917
2017-05-07T19:53:15.330Z,99916
2017-05-07T19:55:48.168Z,99924
2017-05-07T19:58:47.529Z,99923
2017-05-07T20:01:16.620Z,99921
2017-05-07T20:03:45.618Z,99914
2017-05-07T20:06:14.636Z,99904
2017-05-07T20:08:48.927Z,99911
2017-05-07T20:11:18.022Z,99899
2017-05-07T20:13:47.018Z,99903
2017-05-07T20:16:16.208Z,99901
2017-05-07T20:18:45.208Z,99907
2017-05-07T20:21:14.320Z,99904
2017-05-07T20:23:50.364Z,99903
2017-05-07T20:26:46.402Z,99899
2017-05-07T20:29:15.991Z,99904
2017-05-07T20:31:44.994Z,99902
2017-05-07T20:34:14.072Z,99901
2017-05-07T20:36:43.266Z,99901
2017-05-07T20:39:12.272Z,99899
2017-05-07T20:41:41.266Z,99908
2017-05-07T20:44:10.348Z,99911
2017-05-07T20:46:39.497Z,99912
2017-05-07T20:49:09.565Z,99909
2017-05-07T20:51:48.487Z,99899
2017-05-07T20:54:18.507Z,99898
2017-05-07T20:56:47.571Z,99895
2017-05-07T20:59:16.785Z,99895
2017-05-07T21:01:45.814Z,99899
2017-05-07T21:04:14.811Z,99898
2017-05-07T21:06:43.865Z,99896
2017-05-07T21:12:13.813Z,99907
2017-05-07T21:14:42.912Z,99896
2017-05-07T21:17:11.998Z,99888
2017-05-07T21:19:47.637Z,99897
2017-05-07T21:22:16.642Z,99897
2017-05-07T21:24:45.640Z,99898
2017-05-07T21:27:14.741Z,99903
2017-05-07T21:29:43.748Z,99902
2017-05-07T21:32:12.852Z,99894
2017-05-07T21:34:41.907Z,99892
2017-05-07T21:37:10.997Z,99881
2017-05-07T21:39:39.989Z,99881
2017-05-07T21:42:09.080Z,99889
2017-05-07T21:44:38.073Z,99880
2017-05-07T21:49:48.456Z,99880
2017-05-07T21:52:17.551Z,99884
2017-05-07T21:54:46.543Z,99881
2017-05-07T21:57:15.742Z,99885
2017-05-07T21:59:47.916Z,99888
2017-05-07T22:04:55.518Z,99888
2017-05-07T22:07:24.654Z,99885
2017-05-07T22:09:53.630Z,99878
2017-05-07T22:12:22.723Z,99881
2017-05-07T22:17:36.664Z,99870
2017-05-07T22:20:05.664Z,99879
2017-05-07T22:22:34.649Z,99882
2017-05-07T22:25:03.728Z,99876
2017-05-07T22:27:32.730Z,99885
2017-05-07T22:30:01.809Z,99876
2017-05-07T22:32:30.834Z,99885
2017-05-07T22:34:59.912Z,99876
2017-05-07T22:37:28.899Z,99878
2017-05-07T22:39:58.000Z,99877
2017-05-07T22:42:46.751Z,99879
2017-05-07T22:45:15.841Z,99878
2017-05-07T22:47:47.820Z,99881
2017-05-07T22:50:17.164Z,99880
2017-05-07T22:52:46.905Z,99881
2017-05-07T22:55:15.914Z,99882
2017-05-07T22:57:48.500Z,99870
2017-05-07T23:00:17.587Z,99875
2017-05-07T23:02:46.693Z,99877
2017-05-07T23:05:15.763Z,99879
2017-05-07T23:07:44.762Z,99865
2017-05-07T23:10:13.748Z,99871
2017-05-07T23:12:42.775Z,99869
2017-05-07T23:18:13.726Z,99866
2017-05-07T23:20:42.729Z,99854
2017-05-07T23:25:46.929Z,99844
2017-05-07T23:28:15.928Z,99846
2017-05-07T23:30:45.016Z,99850
2017-05-07T23:33:14.168Z,99849
2017-05-07T23:35:47.709Z,99841
2017-05-07T23:38:16.730Z,99839
2017-05-07T23:40:45.770Z,99845
2017-05-07T23:43:15.505Z,99841
2017-05-07T23:45:48.498Z,99843
2017-05-07T23:48:17.585Z,99838
2017-05-07T23:50:46.790Z,99847
2017-05-07T23:53:15.807Z,99844
2017-05-07T23:55:44.869Z,99838
2017-05-07T23:58:13.858Z,99840
